Carpinteria, California
Current Conditions -  °F | °C
As of 4:53 PM on Sunday 23 Nov 2014 (Local Time) from KSBA Reporting Station
Clear Clear  
Wind Chill: 65°   Ceiling: Unl
Heat Index: 65°   Visibility: 10mi
Dew Point: 52°   Wind: 3mph
Humidity: 63%   Direction: 100°E
Pressure: 30.11"   Gusts: NA
Location:  34.39°N, 119.5°W
Report Text: KSBA 240053Z 10003KT 10SM CLR 18/11 A3011 RMK AO2 SLP195 T01830111
Loading
Personal Weather Stations






























Interactive Weather Map New forecast layout! Learn more

10-Day Weather Forecast

Advertisements
Track Severe Weather on mobile